sensor_id;sensor_type;location;lat;lon;timestamp;P1;durP1;ratioP1;P2;durP2;ratioP2
46439;SDS011;32138;50.966;6.968;2023-05-28T00:00:53;11.40;;;8.05;;
46439;SDS011;32138;50.966;6.968;2023-05-28T00:01:56;13.02;;;8.13;;
46439;SDS011;32138;50.966;6.968;2023-05-28T00:02:57;13.75;;;9.18;;
46439;SDS011;32138;50.966;6.968;2023-05-28T00:03:59;15.18;;;7.88;;
46439;SDS011;32138;50.966;6.968;2023-05-28T00:05:00;16.45;;;8.38;;
46439;SDS011;32138;50.966;6.968;2023-05-28T00:06:01;13.98;;;9.38;;
46439;SDS011;32138;50.966;6.968;2023-05-28T00:07:03;15.68;;;8.43;;
46439;SDS011;32138;50.966;6.968;2023-05-28T00:08:05;10.80;;;7.72;;
46439;SDS011;32138;50.966;6.968;2023-05-28T00:09:05;12.52;;;8.55;;
46439;SDS011;32138;50.966;6.968;2023-05-28T00:10:07;17.25;;;8.52;;
46439;SDS011;32138;50.966;6.968;2023-05-28T00:11:09;12.02;;;8.43;;
46439;SDS011;32138;50.966;6.968;2023-05-28T00:12:09;16.38;;;8.63;;
46439;SDS011;32138;50.966;6.968;2023-05-28T00:13:12;9.82;;;6.50;;
46439;SDS011;32138;50.966;6.968;2023-05-28T00:14:12;14.38;;;8.48;;
46439;SDS011;32138;50.966;6.968;2023-05-28T00:15:13;14.18;;;7.60;;
46439;SDS011;32138;50.966;6.968;2023-05-28T00:16:14;13.32;;;7.60;;
46439;SDS011;32138;50.966;6.968;2023-05-28T00:17:15;13.57;;;7.72;;
46439;SDS011;32138;50.966;6.968;2023-05-28T00:18:16;11.80;;;8.18;;
46439;SDS011;32138;50.966;6.968;2023-05-28T00:19:17;9.40;;;7.43;;
46439;SDS011;32138;50.966;6.968;2023-05-28T00:20:18;18.38;;;9.35;;
46439;SDS011;32138;50.966;6.968;2023-05-28T00:21:20;13.02;;;7.55;;
46439;SDS011;32138;50.966;6.968;2023-05-28T00:22:21;12.68;;;7.70;;
46439;SDS011;32138;50.966;6.968;2023-05-28T00:23:21;12.13;;;8.23;;
46439;SDS011;32138;50.966;6.968;2023-05-28T00:24:22;8.60;;;7.05;;
46439;SDS011;32138;50.966;6.968;2023-05-28T00:25:23;15.38;;;8.60;;
46439;SDS011;32138;50.966;6.968;2023-05-28T00:26:24;11.82;;;7.68;;
46439;SDS011;32138;50.966;6.968;2023-05-28T00:27:26;13.15;;;9.30;;
46439;SDS011;32138;50.966;6.968;2023-05-28T00:28:26;12.65;;;7.57;;
46439;SDS011;32138;50.966;6.968;2023-05-28T00:29:27;13.40;;;7.68;;
46439;SDS011;32138;50.966;6.968;2023-05-28T00:30:29;13.52;;;8.50;;
46439;SDS011;32138;50.966;6.968;2023-05-28T00:31:30;13.52;;;8.18;;
46439;SDS011;32138;50.966;6.968;2023-05-28T00:32:31;14.80;;;8.10;;
46439;SDS011;32138;50.966;6.968;2023-05-28T00:33:31;11.18;;;7.63;;
46439;SDS011;32138;50.966;6.968;2023-05-28T00:34:32;12.55;;;8.55;;
46439;SDS011;32138;50.966;6.968;2023-05-28T00:35:33;13.55;;;7.43;;
46439;SDS011;32138;50.966;6.968;2023-05-28T00:36:33;15.70;;;7.68;;
46439;SDS011;32138;50.966;6.968;2023-05-28T00:37:35;18.52;;;8.63;;
46439;SDS011;32138;50.966;6.968;2023-05-28T00:38:36;12.57;;;7.75;;
46439;SDS011;32138;50.966;6.968;2023-05-28T00:39:37;13.75;;;7.38;;
46439;SDS011;32138;50.966;6.968;2023-05-28T00:40:42;11.13;;;7.53;;
46439;SDS011;32138;50.966;6.968;2023-05-28T00:41:44;10.48;;;7.65;;
46439;SDS011;32138;50.966;6.968;2023-05-28T00:42:45;9.60;;;7.50;;
46439;SDS011;32138;50.966;6.968;2023-05-28T00:43:46;14.35;;;8.25;;
46439;SDS011;32138;50.966;6.968;2023-05-28T00:44:47;10.70;;;7.20;;
46439;SDS011;32138;50.966;6.968;2023-05-28T00:45:49;11.45;;;7.35;;
46439;SDS011;32138;50.966;6.968;2023-05-28T00:46:50;12.70;;;7.28;;
46439;SDS011;32138;50.966;6.968;2023-05-28T00:47:51;10.20;;;7.60;;
46439;SDS011;32138;50.966;6.968;2023-05-28T00:48:52;13.88;;;8.23;;
46439;SDS011;32138;50.966;6.968;2023-05-28T00:49:53;11.25;;;7.85;;
46439;SDS011;32138;50.966;6.968;2023-05-28T00:50:55;13.55;;;7.30;;
46439;SDS011;32138;50.966;6.968;2023-05-28T00:51:58;12.43;;;7.28;;
46439;SDS011;32138;50.966;6.968;2023-05-28T00:53:00;11.15;;;7.13;;
46439;SDS011;32138;50.966;6.968;2023-05-28T00:54:02;15.23;;;7.65;;
46439;SDS011;32138;50.966;6.968;2023-05-28T00:55:05;10.48;;;6.20;;
46439;SDS011;32138;50.966;6.968;2023-05-28T00:56:14;13.10;;;7.28;;
46439;SDS011;32138;50.966;6.968;2023-05-28T00:57:16;10.85;;;6.95;;
46439;SDS011;32138;50.966;6.968;2023-05-28T00:58:21;15.35;;;7.43;;
46439;SDS011;32138;50.966;6.968;2023-05-28T00:59:24;10.52;;;5.80;;
46439;SDS011;32138;50.966;6.968;2023-05-28T01:00:26;10.82;;;7.22;;
46439;SDS011;32138;50.966;6.968;2023-05-28T01:01:27;10.02;;;6.38;;
46439;SDS011;32138;50.966;6.968;2023-05-28T01:02:29;10.65;;;6.82;;
46439;SDS011;32138;50.966;6.968;2023-05-28T01:03:30;13.27;;;7.20;;
46439;SDS011;32138;50.966;6.968;2023-05-28T01:04:32;10.68;;;6.90;;
46439;SDS011;32138;50.966;6.968;2023-05-28T01:05:33;10.20;;;6.25;;
46439;SDS011;32138;50.966;6.968;2023-05-28T01:06:34;13.70;;;7.05;;
46439;SDS011;32138;50.966;6.968;2023-05-28T01:07:38;11.05;;;6.20;;
46439;SDS011;32138;50.966;6.968;2023-05-28T01:08:38;10.38;;;6.65;;
46439;SDS011;32138;50.966;6.968;2023-05-28T01:09:41;11.18;;;6.35;;
46439;SDS011;32138;50.966;6.968;2023-05-28T01:10:41;12.18;;;6.50;;
46439;SDS011;32138;50.966;6.968;2023-05-28T01:11:42;9.20;;;6.40;;
46439;SDS011;32138;50.966;6.968;2023-05-28T01:12:46;9.82;;;6.20;;
46439;SDS011;32138;50.966;6.968;2023-05-28T01:13:47;13.27;;;6.75;;
46439;SDS011;32138;50.966;6.968;2023-05-28T01:14:48;11.68;;;6.25;;
46439;SDS011;32138;50.966;6.968;2023-05-28T01:15:49;11.77;;;6.63;;
46439;SDS011;32138;50.966;6.968;2023-05-28T01:16:50;12.20;;;6.50;;
46439;SDS011;32138;50.966;6.968;2023-05-28T01:17:52;14.43;;;6.45;;
46439;SDS011;32138;50.966;6.968;2023-05-28T01:18:58;13.68;;;6.65;;
46439;SDS011;32138;50.966;6.968;2023-05-28T01:20:00;9.95;;;6.25;;
46439;SDS011;32138;50.966;6.968;2023-05-28T01:21:11;14.90;;;6.82;;
46439;SDS011;32138;50.966;6.968;2023-05-28T01:22:13;11.82;;;6.72;;
46439;SDS011;32138;50.966;6.968;2023-05-28T01:23:20;10.93;;;6.30;;
46439;SDS011;32138;50.966;6.968;2023-05-28T01:24:23;11.27;;;6.30;;
46439;SDS011;32138;50.966;6.968;2023-05-28T01:25:25;14.18;;;6.63;;
46439;SDS011;32138;50.966;6.968;2023-05-28T01:26:27;10.80;;;7.32;;
46439;SDS011;32138;50.966;6.968;2023-05-28T01:27:29;12.55;;;6.20;;
46439;SDS011;32138;50.966;6.968;2023-05-28T01:28:30;12.00;;;6.75;;
46439;SDS011;32138;50.966;6.968;2023-05-28T01:29:32;9.82;;;6.47;;
46439;SDS011;32138;50.966;6.968;2023-05-28T01:30:33;7.13;;;5.88;;
46439;SDS011;32138;50.966;6.968;2023-05-28T01:31:34;14.63;;;7.03;;
46439;SDS011;32138;50.966;6.968;2023-05-28T01:32:35;10.93;;;6.32;;
46439;SDS011;32138;50.966;6.968;2023-05-28T01:33:37;12.48;;;7.05;;
46439;SDS011;32138;50.966;6.968;2023-05-28T01:34:39;9.93;;;6.45;;
46439;SDS011;32138;50.966;6.968;2023-05-28T01:35:39;8.30;;;6.25;;
46439;SDS011;32138;50.966;6.968;2023-05-28T01:36:43;11.45;;;6.60;;
46439;SDS011;32138;50.966;6.968;2023-05-28T01:37:56;8.25;;;6.45;;
46439;SDS011;32138;50.966;6.968;2023-05-28T01:39:01;14.48;;;7.30;;
46439;SDS011;32138;50.966;6.968;2023-05-28T01:40:02;10.88;;;6.32;;
46439;SDS011;32138;50.966;6.968;2023-05-28T01:41:04;13.52;;;6.30;;
46439;SDS011;32138;50.966;6.968;2023-05-28T01:42:07;13.38;;;6.18;;
46439;SDS011;32138;50.966;6.968;2023-05-28T01:43:09;10.30;;;5.63;;
46439;SDS011;32138;50.966;6.968;2023-05-28T01:44:11;12.23;;;6.35;;
46439;SDS011;32138;50.966;6.968;2023-05-28T01:45:14;10.45;;;6.47;;
46439;SDS011;32138;50.966;6.968;2023-05-28T01:46:15;12.00;;;7.10;;
46439;SDS011;32138;50.966;6.968;2023-05-28T01:47:16;10.52;;;6.10;;
46439;SDS011;32138;50.966;6.968;2023-05-28T01:48:18;9.05;;;5.97;;
46439;SDS011;32138;50.966;6.968;2023-05-28T01:49:22;11.38;;;6.18;;
46439;SDS011;32138;50.966;6.968;2023-05-28T01:50:23;9.35;;;6.72;;
46439;SDS011;32138;50.966;6.968;2023-05-28T01:51:25;11.38;;;6.70;;
46439;SDS011;32138;50.966;6.968;2023-05-28T01:52:26;11.30;;;6.60;;
46439;SDS011;32138;50.966;6.968;2023-05-28T01:53:27;12.40;;;7.03;;
46439;SDS011;32138;50.966;6.968;2023-05-28T01:54:28;13.23;;;6.20;;
46439;SDS011;32138;50.966;6.968;2023-05-28T01:55:28;10.85;;;6.82;;
46439;SDS011;32138;50.966;6.968;2023-05-28T01:56:29;12.55;;;6.57;;
46439;SDS011;32138;50.966;6.968;2023-05-28T01:57:30;10.27;;;6.10;;
46439;SDS011;32138;50.966;6.968;2023-05-28T01:58:31;13.35;;;5.78;;
46439;SDS011;32138;50.966;6.968;2023-05-28T01:59:32;9.70;;;6.53;;
46439;SDS011;32138;50.966;6.968;2023-05-28T02:00:33;12.10;;;7.15;;
46439;SDS011;32138;50.966;6.968;2023-05-28T02:01:42;9.88;;;6.88;;
46439;SDS011;32138;50.966;6.968;2023-05-28T02:02:43;12.93;;;7.20;;
46439;SDS011;32138;50.966;6.968;2023-05-28T02:03:44;10.13;;;6.57;;
46439;SDS011;32138;50.966;6.968;2023-05-28T02:04:44;9.35;;;6.82;;
46439;SDS011;32138;50.966;6.968;2023-05-28T02:05:45;10.85;;;7.32;;
46439;SDS011;32138;50.966;6.968;2023-05-28T02:06:46;9.30;;;6.35;;
46439;SDS011;32138;50.966;6.968;2023-05-28T02:07:47;9.52;;;6.63;;
46439;SDS011;32138;50.966;6.968;2023-05-28T02:08:47;11.57;;;7.50;;
46439;SDS011;32138;50.966;6.968;2023-05-28T02:09:48;9.02;;;6.13;;
46439;SDS011;32138;50.966;6.968;2023-05-28T02:10:49;12.10;;;6.68;;
46439;SDS011;32138;50.966;6.968;2023-05-28T02:11:50;9.45;;;6.07;;
46439;SDS011;32138;50.966;6.968;2023-05-28T02:12:51;10.98;;;6.18;;
46439;SDS011;32138;50.966;6.968;2023-05-28T02:13:52;11.43;;;6.95;;
46439;SDS011;32138;50.966;6.968;2023-05-28T02:14:54;10.05;;;5.22;;
46439;SDS011;32138;50.966;6.968;2023-05-28T02:15:56;10.10;;;6.65;;
46439;SDS011;32138;50.966;6.968;2023-05-28T02:16:56;9.90;;;6.03;;
46439;SDS011;32138;50.966;6.968;2023-05-28T02:17:58;12.18;;;7.25;;
46439;SDS011;32138;50.966;6.968;2023-05-28T02:18:59;10.48;;;6.50;;
46439;SDS011;32138;50.966;6.968;2023-05-28T02:20:00;11.43;;;6.30;;
46439;SDS011;32138;50.966;6.968;2023-05-28T02:21:00;12.65;;;7.53;;
46439;SDS011;32138;50.966;6.968;2023-05-28T02:22:01;10.20;;;6.45;;
46439;SDS011;32138;50.966;6.968;2023-05-28T02:23:10;11.52;;;6.03;;
46439;SDS011;32138;50.966;6.968;2023-05-28T02:24:10;10.20;;;7.25;;
46439;SDS011;32138;50.966;6.968;2023-05-28T02:25:11;11.40;;;6.25;;
46439;SDS011;32138;50.966;6.968;2023-05-28T02:26:12;9.77;;;6.13;;
46439;SDS011;32138;50.966;6.968;2023-05-28T02:27:13;11.15;;;6.93;;
46439;SDS011;32138;50.966;6.968;2023-05-28T02:28:14;10.52;;;5.97;;
46439;SDS011;32138;50.966;6.968;2023-05-28T02:29:15;12.15;;;6.90;;
46439;SDS011;32138;50.966;6.968;2023-05-28T02:30:16;10.30;;;6.55;;
46439;SDS011;32138;50.966;6.968;2023-05-28T02:31:17;10.68;;;7.00;;
46439;SDS011;32138;50.966;6.968;2023-05-28T02:32:18;9.68;;;6.90;;
46439;SDS011;32138;50.966;6.968;2023-05-28T02:33:18;9.50;;;6.72;;
46439;SDS011;32138;50.966;6.968;2023-05-28T02:34:19;13.07;;;6.60;;
46439;SDS011;32138;50.966;6.968;2023-05-28T02:35:20;11.70;;;6.68;;
46439;SDS011;32138;50.966;6.968;2023-05-28T02:36:22;11.40;;;7.50;;
46439;SDS011;32138;50.966;6.968;2023-05-28T02:37:23;10.88;;;7.35;;
46439;SDS011;32138;50.966;6.968;2023-05-28T02:38:24;11.00;;;7.20;;
46439;SDS011;32138;50.966;6.968;2023-05-28T02:39:25;13.27;;;6.35;;
46439;SDS011;32138;50.966;6.968;2023-05-28T02:40:26;12.43;;;6.75;;
46439;SDS011;32138;50.966;6.968;2023-05-28T02:41:27;12.68;;;6.22;;
46439;SDS011;32138;50.966;6.968;2023-05-28T02:42:27;13.35;;;7.38;;
46439;SDS011;32138;50.966;6.968;2023-05-28T02:43:28;13.45;;;7.32;;
46439;SDS011;32138;50.966;6.968;2023-05-28T02:44:29;11.48;;;6.57;;
46439;SDS011;32138;50.966;6.968;2023-05-28T02:45:30;13.15;;;6.75;;
46439;SDS011;32138;50.966;6.968;2023-05-28T02:46:30;8.15;;;5.68;;
46439;SDS011;32138;50.966;6.968;2023-05-28T02:47:31;13.45;;;6.80;;
46439;SDS011;32138;50.966;6.968;2023-05-28T02:48:32;14.63;;;7.43;;
46439;SDS011;32138;50.966;6.968;2023-05-28T02:49:33;10.15;;;6.30;;
46439;SDS011;32138;50.966;6.968;2023-05-28T02:50:33;13.48;;;7.93;;
46439;SDS011;32138;50.966;6.968;2023-05-28T02:51:34;11.95;;;7.03;;
46439;SDS011;32138;50.966;6.968;2023-05-28T02:52:35;10.25;;;6.20;;
46439;SDS011;32138;50.966;6.968;2023-05-28T02:53:36;11.70;;;6.97;;
46439;SDS011;32138;50.966;6.968;2023-05-28T02:54:36;9.70;;;6.28;;
46439;SDS011;32138;50.966;6.968;2023-05-28T02:55:37;11.77;;;6.72;;
46439;SDS011;32138;50.966;6.968;2023-05-28T02:56:38;10.10;;;6.55;;
46439;SDS011;32138;50.966;6.968;2023-05-28T02:57:38;11.52;;;7.18;;
46439;SDS011;32138;50.966;6.968;2023-05-28T02:58:39;12.85;;;7.25;;
46439;SDS011;32138;50.966;6.968;2023-05-28T02:59:40;11.18;;;6.40;;
46439;SDS011;32138;50.966;6.968;2023-05-28T03:00:41;10.63;;;6.82;;
46439;SDS011;32138;50.966;6.968;2023-05-28T03:01:42;13.45;;;6.45;;
46439;SDS011;32138;50.966;6.968;2023-05-28T03:02:42;13.90;;;7.72;;
46439;SDS011;32138;50.966;6.968;2023-05-28T03:03:43;9.98;;;6.95;;
46439;SDS011;32138;50.966;6.968;2023-05-28T03:04:44;12.10;;;6.75;;
46439;SDS011;32138;50.966;6.968;2023-05-28T03:05:45;12.88;;;6.72;;
46439;SDS011;32138;50.966;6.968;2023-05-28T03:06:46;10.18;;;6.53;;
46439;SDS011;32138;50.966;6.968;2023-05-28T03:07:46;10.73;;;6.72;;
46439;SDS011;32138;50.966;6.968;2023-05-28T03:08:47;11.15;;;7.47;;
46439;SDS011;32138;50.966;6.968;2023-05-28T03:09:48;9.90;;;6.75;;
46439;SDS011;32138;50.966;6.968;2023-05-28T03:10:49;13.65;;;7.15;;
46439;SDS011;32138;50.966;6.968;2023-05-28T03:11:50;13.50;;;6.90;;
46439;SDS011;32138;50.966;6.968;2023-05-28T03:12:51;10.90;;;6.97;;
46439;SDS011;32138;50.966;6.968;2023-05-28T03:13:51;10.40;;;6.90;;
46439;SDS011;32138;50.966;6.968;2023-05-28T03:14:52;15.07;;;7.65;;
46439;SDS011;32138;50.966;6.968;2023-05-28T03:15:53;10.23;;;6.50;;
46439;SDS011;32138;50.966;6.968;2023-05-28T03:16:54;12.07;;;7.22;;
46439;SDS011;32138;50.966;6.968;2023-05-28T03:17:55;11.43;;;6.78;;
46439;SDS011;32138;50.966;6.968;2023-05-28T03:18:55;12.60;;;7.35;;
46439;SDS011;32138;50.966;6.968;2023-05-28T03:19:56;13.98;;;7.20;;
46439;SDS011;32138;50.966;6.968;2023-05-28T03:20:57;11.23;;;7.32;;
46439;SDS011;32138;50.966;6.968;2023-05-28T03:21:58;10.40;;;7.07;;
46439;SDS011;32138;50.966;6.968;2023-05-28T03:22:58;14.15;;;7.75;;
46439;SDS011;32138;50.966;6.968;2023-05-28T03:23:59;13.88;;;7.72;;
46439;SDS011;32138;50.966;6.968;2023-05-28T03:25:00;11.40;;;7.20;;
46439;SDS011;32138;50.966;6.968;2023-05-28T03:26:01;12.35;;;7.63;;
46439;SDS011;32138;50.966;6.968;2023-05-28T03:27:02;13.07;;;8.18;;
46439;SDS011;32138;50.966;6.968;2023-05-28T03:28:03;13.18;;;7.47;;
46439;SDS011;32138;50.966;6.968;2023-05-28T03:29:04;11.40;;;7.28;;
46439;SDS011;32138;50.966;6.968;2023-05-28T03:30:06;12.35;;;7.70;;
46439;SDS011;32138;50.966;6.968;2023-05-28T03:31:07;10.95;;;6.97;;
46439;SDS011;32138;50.966;6.968;2023-05-28T03:32:08;12.50;;;7.22;;
46439;SDS011;32138;50.966;6.968;2023-05-28T03:33:09;12.98;;;8.13;;
46439;SDS011;32138;50.966;6.968;2023-05-28T03:34:10;12.98;;;7.28;;
46439;SDS011;32138;50.966;6.968;2023-05-28T03:35:10;11.07;;;7.22;;
46439;SDS011;32138;50.966;6.968;2023-05-28T03:36:11;11.40;;;6.45;;
46439;SDS011;32138;50.966;6.968;2023-05-28T03:37:12;12.27;;;7.65;;
46439;SDS011;32138;50.966;6.968;2023-05-28T03:38:13;11.85;;;7.90;;
46439;SDS011;32138;50.966;6.968;2023-05-28T03:39:13;10.77;;;7.13;;
46439;SDS011;32138;50.966;6.968;2023-05-28T03:40:14;12.40;;;7.75;;
46439;SDS011;32138;50.966;6.968;2023-05-28T03:41:15;10.52;;;7.25;;
46439;SDS011;32138;50.966;6.968;2023-05-28T03:42:16;10.60;;;7.97;;
46439;SDS011;32138;50.966;6.968;2023-05-28T03:43:16;15.15;;;8.45;;
46439;SDS011;32138;50.966;6.968;2023-05-28T03:44:17;10.25;;;6.90;;
46439;SDS011;32138;50.966;6.968;2023-05-28T03:45:18;11.18;;;7.22;;
46439;SDS011;32138;50.966;6.968;2023-05-28T03:46:19;11.30;;;7.18;;
46439;SDS011;32138;50.966;6.968;2023-05-28T03:47:19;14.90;;;8.05;;
46439;SDS011;32138;50.966;6.968;2023-05-28T03:48:20;9.98;;;7.22;;
46439;SDS011;32138;50.966;6.968;2023-05-28T03:49:21;11.90;;;7.38;;
46439;SDS011;32138;50.966;6.968;2023-05-28T03:50:21;9.23;;;7.35;;
46439;SDS011;32138;50.966;6.968;2023-05-28T03:51:24;10.95;;;7.43;;
46439;SDS011;32138;50.966;6.968;2023-05-28T03:52:26;12.63;;;7.63;;
46439;SDS011;32138;50.966;6.968;2023-05-28T03:53:27;10.90;;;8.15;;
46439;SDS011;32138;50.966;6.968;2023-05-28T03:54:28;11.48;;;7.38;;
46439;SDS011;32138;50.966;6.968;2023-05-28T03:55:29;11.52;;;8.25;;
46439;SDS011;32138;50.966;6.968;2023-05-28T03:56:29;12.98;;;7.72;;
46439;SDS011;32138;50.966;6.968;2023-05-28T03:57:30;11.57;;;7.63;;
46439;SDS011;32138;50.966;6.968;2023-05-28T03:58:31;17.67;;;8.23;;
46439;SDS011;32138;50.966;6.968;2023-05-28T03:59:32;12.25;;;7.88;;
46439;SDS011;32138;50.966;6.968;2023-05-28T04:00:32;13.25;;;8.25;;
46439;SDS011;32138;50.966;6.968;2023-05-28T04:01:34;11.75;;;8.23;;
46439;SDS011;32138;50.966;6.968;2023-05-28T04:02:36;17.00;;;7.82;;
46439;SDS011;32138;50.966;6.968;2023-05-28T04:03:36;12.90;;;7.85;;
46439;SDS011;32138;50.966;6.968;2023-05-28T04:04:37;11.52;;;7.05;;
46439;SDS011;32138;50.966;6.968;2023-05-28T04:05:38;10.82;;;7.35;;
46439;SDS011;32138;50.966;6.968;2023-05-28T04:06:38;10.45;;;6.63;;
46439;SDS011;32138;50.966;6.968;2023-05-28T04:07:39;13.07;;;8.48;;
46439;SDS011;32138;50.966;6.968;2023-05-28T04:08:40;13.23;;;8.52;;
46439;SDS011;32138;50.966;6.968;2023-05-28T04:09:42;10.88;;;7.05;;
46439;SDS011;32138;50.966;6.968;2023-05-28T04:10:42;14.00;;;7.80;;
46439;SDS011;32138;50.966;6.968;2023-05-28T04:11:43;11.90;;;6.85;;
46439;SDS011;32138;50.966;6.968;2023-05-28T04:12:44;13.05;;;7.55;;
46439;SDS011;32138;50.966;6.968;2023-05-28T04:13:45;11.57;;;7.55;;
46439;SDS011;32138;50.966;6.968;2023-05-28T04:14:46;10.70;;;6.70;;
46439;SDS011;32138;50.966;6.968;2023-05-28T04:15:46;9.23;;;6.95;;
46439;SDS011;32138;50.966;6.968;2023-05-28T04:16:47;12.75;;;7.30;;
46439;SDS011;32138;50.966;6.968;2023-05-28T04:17:48;12.18;;;7.47;;
46439;SDS011;32138;50.966;6.968;2023-05-28T04:18:49;11.93;;;7.50;;
46439;SDS011;32138;50.966;6.968;2023-05-28T04:19:50;12.23;;;7.72;;
46439;SDS011;32138;50.966;6.968;2023-05-28T04:20:53;12.52;;;7.35;;
46439;SDS011;32138;50.966;6.968;2023-05-28T04:21:55;11.45;;;8.45;;
46439;SDS011;32138;50.966;6.968;2023-05-28T04:22:56;10.93;;;7.63;;
46439;SDS011;32138;50.966;6.968;2023-05-28T04:23:57;14.40;;;9.07;;
46439;SDS011;32138;50.966;6.968;2023-05-28T04:24:58;9.52;;;7.72;;
46439;SDS011;32138;50.966;6.968;2023-05-28T04:25:58;12.75;;;7.40;;
46439;SDS011;32138;50.966;6.968;2023-05-28T04:27:00;10.38;;;7.72;;
46439;SDS011;32138;50.966;6.968;2023-05-28T04:28:00;10.88;;;7.65;;
46439;SDS011;32138;50.966;6.968;2023-05-28T04:29:01;11.73;;;7.90;;
46439;SDS011;32138;50.966;6.968;2023-05-28T04:30:02;10.45;;;7.22;;
46439;SDS011;32138;50.966;6.968;2023-05-28T04:31:03;13.77;;;7.30;;
46439;SDS011;32138;50.966;6.968;2023-05-28T04:32:04;12.05;;;7.97;;
46439;SDS011;32138;50.966;6.968;2023-05-28T04:33:09;11.38;;;6.97;;
46439;SDS011;32138;50.966;6.968;2023-05-28T04:34:10;13.80;;;7.85;;
46439;SDS011;32138;50.966;6.968;2023-05-28T04:35:16;10.60;;;7.47;;
46439;SDS011;32138;50.966;6.968;2023-05-28T04:36:17;13.63;;;8.50;;
46439;SDS011;32138;50.966;6.968;2023-05-28T04:37:17;14.80;;;8.57;;
46439;SDS011;32138;50.966;6.968;2023-05-28T04:38:18;15.35;;;7.47;;
46439;SDS011;32138;50.966;6.968;2023-05-28T04:39:20;13.05;;;6.57;;
46439;SDS011;32138;50.966;6.968;2023-05-28T04:40:23;10.93;;;7.22;;
46439;SDS011;32138;50.966;6.968;2023-05-28T04:41:24;14.45;;;7.78;;
46439;SDS011;32138;50.966;6.968;2023-05-28T04:42:25;13.63;;;7.85;;
46439;SDS011;32138;50.966;6.968;2023-05-28T04:43:28;16.23;;;8.48;;
46439;SDS011;32138;50.966;6.968;2023-05-28T04:44:29;14.48;;;7.30;;
46439;SDS011;32138;50.966;6.968;2023-05-28T04:45:32;11.05;;;8.18;;
46439;SDS011;32138;50.966;6.968;2023-05-28T04:46:34;12.30;;;7.95;;
46439;SDS011;32138;50.966;6.968;2023-05-28T04:47:37;15.55;;;7.97;;
46439;SDS011;32138;50.966;6.968;2023-05-28T04:48:37;13.60;;;7.93;;
46439;SDS011;32138;50.966;6.968;2023-05-28T04:49:38;12.82;;;7.85;;
46439;SDS011;32138;50.966;6.968;2023-05-28T04:50:40;15.10;;;7.43;;
46439;SDS011;32138;50.966;6.968;2023-05-28T04:51:41;13.15;;;7.90;;
46439;SDS011;32138;50.966;6.968;2023-05-28T04:52:43;12.15;;;7.25;;
46439;SDS011;32138;50.966;6.968;2023-05-28T04:53:43;12.05;;;7.22;;
46439;SDS011;32138;50.966;6.968;2023-05-28T04:54:44;12.55;;;7.25;;
46439;SDS011;32138;50.966;6.968;2023-05-28T04:55:45;16.23;;;7.68;;
46439;SDS011;32138;50.966;6.968;2023-05-28T04:56:46;11.50;;;7.35;;
46439;SDS011;32138;50.966;6.968;2023-05-28T04:57:48;13.02;;;7.53;;
46439;SDS011;32138;50.966;6.968;2023-05-28T04:58:48;11.80;;;7.00;;
46439;SDS011;32138;50.966;6.968;2023-05-28T04:59:49;13.45;;;7.45;;
46439;SDS011;32138;50.966;6.968;2023-05-28T05:00:51;10.45;;;7.25;;
46439;SDS011;32138;50.966;6.968;2023-05-28T05:01:52;14.07;;;8.05;;
46439;SDS011;32138;50.966;6.968;2023-05-28T05:02:53;11.23;;;7.28;;
46439;SDS011;32138;50.966;6.968;2023-05-28T05:03:54;12.18;;;7.15;;
46439;SDS011;32138;50.966;6.968;2023-05-28T05:04:55;10.98;;;7.70;;
46439;SDS011;32138;50.966;6.968;2023-05-28T05:05:57;11.07;;;6.63;;
46439;SDS011;32138;50.966;6.968;2023-05-28T05:06:57;14.00;;;7.70;;
46439;SDS011;32138;50.966;6.968;2023-05-28T05:07:58;11.48;;;7.45;;
46439;SDS011;32138;50.966;6.968;2023-05-28T05:09:00;12.00;;;7.97;;
46439;SDS011;32138;50.966;6.968;2023-05-28T05:10:00;12.43;;;7.40;;
46439;SDS011;32138;50.966;6.968;2023-05-28T05:11:02;10.38;;;7.40;;
46439;SDS011;32138;50.966;6.968;2023-05-28T05:12:05;13.93;;;8.27;;
46439;SDS011;32138;50.966;6.968;2023-05-28T05:13:07;10.45;;;7.72;;
46439;SDS011;32138;50.966;6.968;2023-05-28T05:14:08;13.35;;;7.72;;
46439;SDS011;32138;50.966;6.968;2023-05-28T05:15:10;13.10;;;7.68;;
46439;SDS011;32138;50.966;6.968;2023-05-28T05:16:11;13.35;;;7.63;;
46439;SDS011;32138;50.966;6.968;2023-05-28T05:17:12;11.05;;;7.38;;
46439;SDS011;32138;50.966;6.968;2023-05-28T05:18:13;14.50;;;7.97;;
46439;SDS011;32138;50.966;6.968;2023-05-28T05:19:14;12.55;;;7.15;;
46439;SDS011;32138;50.966;6.968;2023-05-28T05:20:15;14.90;;;7.28;;
46439;SDS011;32138;50.966;6.968;2023-05-28T05:21:16;10.55;;;6.00;;
46439;SDS011;32138;50.966;6.968;2023-05-28T05:22:17;10.82;;;7.43;;
46439;SDS011;32138;50.966;6.968;2023-05-28T05:23:18;12.35;;;7.15;;
46439;SDS011;32138;50.966;6.968;2023-05-28T05:24:19;10.82;;;6.72;;
46439;SDS011;32138;50.966;6.968;2023-05-28T05:25:20;15.07;;;9.77;;
46439;SDS011;32138;50.966;6.968;2023-05-28T05:26:21;15.38;;;9.65;;
46439;SDS011;32138;50.966;6.968;2023-05-28T05:27:22;10.93;;;8.73;;
46439;SDS011;32138;50.966;6.968;2023-05-28T05:28:23;13.48;;;8.25;;
46439;SDS011;32138;50.966;6.968;2023-05-28T05:29:23;11.48;;;8.10;;
46439;SDS011;32138;50.966;6.968;2023-05-28T05:30:24;13.30;;;7.40;;
46439;SDS011;32138;50.966;6.968;2023-05-28T05:31:25;14.50;;;7.10;;
46439;SDS011;32138;50.966;6.968;2023-05-28T05:32:26;12.25;;;7.53;;
46439;SDS011;32138;50.966;6.968;2023-05-28T05:33:26;13.68;;;7.10;;
46439;SDS011;32138;50.966;6.968;2023-05-28T05:34:27;8.25;;;6.68;;
46439;SDS011;32138;50.966;6.968;2023-05-28T05:35:28;9.50;;;7.20;;
46439;SDS011;32138;50.966;6.968;2023-05-28T05:36:29;13.60;;;8.45;;
46439;SDS011;32138;50.966;6.968;2023-05-28T05:37:30;12.65;;;6.78;;
46439;SDS011;32138;50.966;6.968;2023-05-28T05:38:31;10.52;;;7.13;;
46439;SDS011;32138;50.966;6.968;2023-05-28T05:39:32;12.85;;;7.45;;
46439;SDS011;32138;50.966;6.968;2023-05-28T05:40:33;29.55;;;22.27;;
46439;SDS011;32138;50.966;6.968;2023-05-28T05:41:33;87.28;;;69.32;;
46439;SDS011;32138;50.966;6.968;2023-05-28T05:42:34;110.13;;;90.35;;
46439;SDS011;32138;50.966;6.968;2023-05-28T05:43:35;125.22;;;102.57;;
46439;SDS011;32138;50.966;6.968;2023-05-28T05:44:36;74.70;;;58.05;;
46439;SDS011;32138;50.966;6.968;2023-05-28T05:45:36;39.42;;;32.60;;
46439;SDS011;32138;50.966;6.968;2023-05-28T05:46:37;30.23;;;22.83;;
46439;SDS011;32138;50.966;6.968;2023-05-28T05:47:38;22.58;;;15.48;;
46439;SDS011;32138;50.966;6.968;2023-05-28T05:48:39;18.25;;;10.77;;
46439;SDS011;32138;50.966;6.968;2023-05-28T05:49:40;19.40;;;14.75;;
46439;SDS011;32138;50.966;6.968;2023-05-28T05:50:47;38.03;;;29.30;;
46439;SDS011;32138;50.966;6.968;2023-05-28T05:51:54;67.38;;;51.35;;
46439;SDS011;32138;50.966;6.968;2023-05-28T05:52:54;31.17;;;23.65;;
46439;SDS011;32138;50.966;6.968;2023-05-28T05:53:55;21.13;;;14.82;;
46439;SDS011;32138;50.966;6.968;2023-05-28T05:54:56;14.18;;;8.93;;
46439;SDS011;32138;50.966;6.968;2023-05-28T05:55:57;13.98;;;7.72;;
46439;SDS011;32138;50.966;6.968;2023-05-28T05:56:58;12.05;;;8.20;;
46439;SDS011;32138;50.966;6.968;2023-05-28T05:57:59;14.30;;;8.35;;
46439;SDS011;32138;50.966;6.968;2023-05-28T05:59:01;14.88;;;7.55;;
46439;SDS011;32138;50.966;6.968;2023-05-28T06:00:05;9.57;;;7.18;;
46439;SDS011;32138;50.966;6.968;2023-05-28T06:01:08;10.88;;;7.15;;
46439;SDS011;32138;50.966;6.968;2023-05-28T06:02:10;14.05;;;7.45;;
46439;SDS011;32138;50.966;6.968;2023-05-28T06:03:10;13.23;;;8.32;;
46439;SDS011;32138;50.966;6.968;2023-05-28T06:04:11;14.15;;;7.60;;
46439;SDS011;32138;50.966;6.968;2023-05-28T06:05:12;11.70;;;7.47;;